createdAt,value
2022-10-23T00:01:28.705Z,98775.28
2022-10-23T00:03:58.772Z,98774.44
2022-10-23T00:06:26.450Z,98769.03
2022-10-23T00:08:53.831Z,98769.03
2022-10-23T00:11:26.750Z,98780.56
2022-10-23T00:13:56.037Z,98774.44
2022-10-23T00:16:23.390Z,98762.38
2022-10-23T00:18:50.374Z,98782.72
2022-10-23T00:21:18.652Z,98787.50
2022-10-23T00:23:46.370Z,98780.88
2022-10-23T00:26:17.179Z,98778.81
2022-10-23T00:28:46.327Z,98772.44
2022-10-23T00:31:13.647Z,98772.81
2022-10-23T00:33:41.254Z,98786.03
2022-10-23T00:36:10.869Z,98797.03
2022-10-23T00:38:38.809Z,98775.47
2022-10-23T00:41:07.442Z,98779.75
2022-10-23T00:43:36.055Z,98794.69
2022-10-23T00:46:03.041Z,98771.44
2022-10-23T00:48:30.081Z,98771.44
2022-10-23T00:50:57.395Z,98789.81
2022-10-23T00:53:25.137Z,98794.25
2022-10-23T00:55:55.000Z,98772.44
2022-10-23T00:58:22.306Z,98794.75
2022-10-23T01:00:52.378Z,98789.34
2022-10-23T01:03:23.537Z,98794.75
2022-10-23T01:06:11.193Z,98775.88
2022-10-23T01:09:03.246Z,98771.56
2022-10-23T01:11:42.439Z,98775.75
2022-10-23T01:14:23.712Z,98781.16
2022-10-23T01:17:17.970Z,98780.25
2022-10-23T01:20:19.893Z,98771.22
2022-10-23T01:22:53.790Z,98774.03
2022-10-23T01:25:38.851Z,98773.91
2022-10-23T01:28:11.762Z,98794.63
2022-10-23T01:30:44.438Z,98793.25
2022-10-23T01:33:36.919Z,98770.19
2022-10-23T01:36:10.552Z,98779.28
2022-10-23T01:38:56.631Z,98771.31
2022-10-23T01:41:30.706Z,98779.50
2022-10-23T01:44:11.375Z,98785.75
2022-10-23T01:46:39.754Z,98777.78
2022-10-23T01:49:11.932Z,98789.31
2022-10-23T01:51:42.615Z,98784.06
2022-10-23T01:54:12.664Z,98794.94
2022-10-23T01:56:44.118Z,98788.56
2022-10-23T01:59:16.442Z,98785.13
2022-10-23T02:01:47.477Z,98804.22
2022-10-23T02:04:19.340Z,98799.97
2022-10-23T02:06:46.328Z,98787.22
2022-10-23T02:09:14.410Z,98784.00
2022-10-23T02:12:09.973Z,98797.38
2022-10-23T02:14:49.329Z,98796.84
2022-10-23T02:17:28.444Z,98800.53
2022-10-23T02:20:08.691Z,98803.56
2022-10-23T02:22:42.618Z,98799.59
2022-10-23T02:25:16.275Z,98795.84
2022-10-23T02:27:53.876Z,98795.97
2022-10-23T02:30:24.323Z,98803.41
2022-10-23T02:32:59.822Z,98801.44
2022-10-23T02:35:26.767Z,98798.03
2022-10-23T02:38:02.992Z,98803.41
2022-10-23T02:40:41.280Z,98815.88
2022-10-23T02:43:20.195Z,98811.38
2022-10-23T02:45:56.133Z,98806.78
2022-10-23T02:48:30.530Z,98809.81
2022-10-23T02:51:12.034Z,98824.97
2022-10-23T02:53:49.341Z,98817.91
2022-10-23T02:56:38.618Z,98821.44
2022-10-23T02:59:21.532Z,98826.28
2022-10-23T03:01:56.208Z,98829.97
2022-10-23T03:04:26.209Z,98835.38
2022-10-23T03:06:53.282Z,98841.38
2022-10-23T03:09:20.242Z,98851.06
2022-10-23T03:11:47.166Z,98848.56
2022-10-23T03:14:14.441Z,98853.94
2022-10-23T03:16:41.375Z,98857.53
2022-10-23T03:19:09.592Z,98862.91
2022-10-23T03:21:37.123Z,98860.09
2022-10-23T03:24:08.100Z,98857.28
2022-10-23T03:26:40.570Z,98856.44
2022-10-23T03:29:07.566Z,98851.78
2022-10-23T03:31:40.743Z,98865.47
2022-10-23T03:34:11.258Z,98862.78
2022-10-23T03:36:40.650Z,98874.63
2022-10-23T03:39:08.822Z,98871.19
2022-10-23T03:41:35.786Z,98869.06
2022-10-23T03:46:35.177Z,98874.78
2022-10-23T03:49:02.153Z,98874.97
2022-10-23T03:51:29.181Z,98868.53
2022-10-23T03:53:57.829Z,98871.97
2022-10-23T03:56:24.858Z,98872.06
2022-10-23T03:58:51.756Z,98873.81
2022-10-23T04:01:18.816Z,98878.22
2022-10-23T04:03:46.443Z,98886.38
2022-10-23T04:06:15.519Z,98875.88
2022-10-23T04:08:46.002Z,98883.16
2022-10-23T04:11:15.737Z,98881.88
2022-10-23T04:13:46.259Z,98879.19
2022-10-23T04:16:15.547Z,98878.22
2022-10-23T04:18:44.438Z,98891.25
2022-10-23T04:21:12.014Z,98878.66
2022-10-23T04:23:39.357Z,98885.56
2022-10-23T04:26:12.325Z,98882.31
2022-10-23T04:28:39.591Z,98894.16
2022-10-23T04:31:06.619Z,98894.25
2022-10-23T04:33:33.937Z,98891.16
2022-10-23T04:36:01.180Z,98902.88
2022-10-23T04:38:28.199Z,98901.91
2022-10-23T04:40:55.145Z,98906.50
2022-10-23T04:43:23.106Z,98901.03
2022-10-23T04:45:50.322Z,98911.22
2022-10-23T04:48:17.863Z,98918.44
2022-10-23T04:51:20.099Z,98921.13
2022-10-23T04:54:12.885Z,98897.03
2022-10-23T04:56:42.566Z,98905.84
2022-10-23T04:59:14.840Z,98919.53
2022-10-23T05:01:42.580Z,98914.16
2022-10-23T05:04:09.933Z,98908.97
2022-10-23T05:06:59.705Z,98911.97
2022-10-23T05:09:45.267Z,98915.00
2022-10-23T05:12:23.046Z,98922.22
2022-10-23T05:14:50.011Z,98914.91
2022-10-23T05:17:37.627Z,98917.59
2022-10-23T05:20:09.867Z,98915.84
2022-10-23T05:22:41.572Z,98910.28
2022-10-23T05:25:11.350Z,98929.59
2022-10-23T05:27:41.256Z,98931.75
2022-10-23T05:30:11.992Z,98935.59
2022-10-23T05:32:39.416Z,98931.31
2022-10-23T05:35:19.616Z,98932.63
2022-10-23T05:37:51.070Z,98934.13
2022-10-23T05:40:21.605Z,98933.47
2022-10-23T05:42:51.122Z,98931.22
2022-10-23T05:45:21.784Z,98938.09
2022-10-23T05:48:34.677Z,98959.22
2022-10-23T05:51:23.024Z,98949.75
2022-10-23T05:54:13.464Z,98958.97
2022-10-23T05:57:02.295Z,98962.47
2022-10-23T05:59:49.945Z,98964.41
2022-10-23T06:02:25.900Z,98964.22
2022-10-23T06:04:59.230Z,98967.75
2022-10-23T06:07:59.690Z,98979.91
2022-10-23T06:10:27.497Z,98978.94
2022-10-23T06:12:57.367Z,98976.81
2022-10-23T06:15:26.450Z,98966.88
2022-10-23T06:18:05.463Z,98973.53
2022-10-23T06:20:37.378Z,98974.47
2022-10-23T06:23:18.119Z,98985.09
2022-10-23T06:26:07.769Z,98978.69
2022-10-23T06:28:48.600Z,98981.94
2022-10-23T06:31:16.768Z,98991.59
2022-10-23T06:33:43.655Z,98988.09
2022-10-23T06:36:10.960Z,98992.91
2022-10-23T06:38:40.954Z,98999.94
2022-10-23T06:41:14.337Z,98983.31
2022-10-23T06:43:41.819Z,98984.88
2022-10-23T06:46:19.019Z,99001.69
2022-10-23T06:49:05.896Z,98988.56
2022-10-23T06:51:38.916Z,98989.19
2022-10-23T06:54:11.831Z,98994.81
2022-10-23T06:56:51.359Z,98999.75
2022-10-23T06:59:22.580Z,98993.13
2022-10-23T07:01:51.890Z,99003.31
2022-10-23T07:04:19.027Z,99000.38
2022-10-23T07:06:46.130Z,99005.41
2022-10-23T07:09:13.284Z,99001.22
2022-10-23T07:11:52.396Z,98999.13
2022-10-23T07:14:23.429Z,99006.47
2022-10-23T07:16:50.494Z,99008.28
2022-10-23T07:19:17.591Z,99008.50
2022-10-23T07:22:09.727Z,99008.88
2022-10-23T07:24:44.760Z,99016.16
2022-10-23T07:27:18.998Z,99007.94
2022-10-23T07:29:52.626Z,99021.88
2022-10-23T07:32:19.724Z,99011.38
2022-10-23T07:37:49.791Z,99004.50
2022-10-23T07:40:18.867Z,99011.19
2022-10-23T07:42:45.905Z,99008.81
2022-10-23T07:45:13.563Z,99013.69
2022-10-23T07:47:43.534Z,99014.06
2022-10-23T07:50:13.111Z,99002.59
2022-10-23T07:52:39.978Z,99002.13
2022-10-23T07:55:16.563Z,99001.06
2022-10-23T07:57:49.951Z,98999.94
2022-10-23T08:00:39.184Z,98999.84
2022-10-23T08:03:13.649Z,99004.56
2022-10-23T08:05:41.159Z,99001.28
2022-10-23T08:08:09.060Z,98991.56
2022-10-23T08:10:38.609Z,99004.84
2022-10-23T08:13:13.087Z,98994.91
2022-10-23T08:15:53.408Z,98993.88
2022-10-23T08:18:52.861Z,98990.47
2022-10-23T08:21:20.167Z,98984.38
2022-10-23T08:23:49.189Z,98982.91
2022-10-23T08:26:16.412Z,98990.69
2022-10-23T08:28:43.329Z,98983.59
2022-10-23T08:31:16.529Z,98980.47
2022-10-23T08:33:56.736Z,98989.19
2022-10-23T08:36:26.322Z,98990.34
2022-10-23T08:38:55.479Z,98997.66
2022-10-23T08:41:47.798Z,98991.81
2022-10-23T08:44:21.331Z,98999.84
2022-10-23T08:46:56.042Z,98995.31
2022-10-23T08:49:50.151Z,98996.66
2022-10-23T08:52:25.783Z,98990.81
2022-10-23T08:55:04.764Z,98987.56
2022-10-23T08:57:40.048Z,98982.50
2022-10-23T09:00:15.124Z,98986.44
2022-10-23T09:02:48.186Z,98984.53
2022-10-23T09:05:30.717Z,98984.50
2022-10-23T09:08:08.694Z,98989.63
2022-10-23T09:10:46.019Z,98987.16
2022-10-23T09:13:34.901Z,98981.81
2022-10-23T09:16:28.108Z,98986.22
2022-10-23T09:18:56.021Z,98980.47
2022-10-23T09:21:29.070Z,98977.63
2022-10-23T09:23:57.048Z,98982.94
2022-10-23T09:26:23.976Z,98977.81
2022-10-23T09:29:01.430Z,98973.41
2022-10-23T09:31:28.378Z,98985.72
2022-10-23T09:34:01.296Z,98974.09
2022-10-23T09:36:29.638Z,98974.22
2022-10-23T09:39:01.677Z,98968.09
2022-10-23T09:41:38.576Z,98967.56
2022-10-23T09:44:08.561Z,98958.66
2022-10-23T09:46:43.102Z,98961.06
2022-10-23T09:49:28.206Z,98962.75
2022-10-23T09:51:59.902Z,98962.75
2022-10-23T09:54:29.189Z,98947.44
2022-10-23T09:57:03.561Z,98954.78
2022-10-23T09:59:32.363Z,98950.47
2022-10-23T10:02:01.729Z,98956.72
2022-10-23T10:04:59.466Z,98951.53
2022-10-23T10:07:31.139Z,98944.44
2022-10-23T10:10:00.551Z,98942.63
2022-10-23T10:12:39.402Z,98944.13
2022-10-23T10:15:44.905Z,98943.50
2022-10-23T10:18:19.508Z,98939.34
2022-10-23T10:20:52.737Z,98934.19
2022-10-23T10:23:33.357Z,98924.84
2022-10-23T10:26:10.018Z,98932.06
2022-10-23T10:28:42.490Z,98927.00
2022-10-23T10:31:19.644Z,98915.38
2022-10-23T10:34:14.631Z,98914.25
2022-10-23T10:37:03.067Z,98912.94
2022-10-23T10:40:20.376Z,98903.97
2022-10-23T10:43:10.865Z,98905.56
2022-10-23T10:55:15.187Z,98895.47
2022-10-23T10:57:46.703Z,98889.66
2022-10-23T11:00:14.719Z,98883.38
2022-10-23T11:02:48.715Z,98881.72
2022-10-23T11:05:25.775Z,98891.31
2022-10-23T11:07:57.067Z,98879.63
2022-10-23T11:10:24.375Z,98881.28
2022-10-23T11:12:52.070Z,98875.84
2022-10-23T11:15:25.916Z,98859.63
2022-10-23T11:17:58.992Z,98859.09
2022-10-23T11:20:51.242Z,98860.31
2022-10-23T11:23:42.995Z,98852.19
2022-10-23T11:26:16.221Z,98844.88
2022-10-23T11:28:48.869Z,98837.44
2022-10-23T11:31:46.422Z,98836.00
2022-10-23T11:34:58.199Z,98829.84
2022-10-23T11:37:26.925Z,98823.59
2022-10-23T11:40:13.830Z,98815.19
2022-10-23T11:42:41.024Z,98813.28
2022-10-23T11:45:29.984Z,98810.09
2022-10-23T11:48:35.247Z,98810.06
2022-10-23T11:51:05.236Z,98807.63
2022-10-23T11:53:32.389Z,98804.16
2022-10-23T11:56:02.224Z,98799.75
2022-10-23T11:58:42.489Z,98798.59
2022-10-23T12:01:41.177Z,98786.88
2022-10-23T12:04:14.043Z,98782.91
2022-10-23T12:06:45.567Z,98788.84
2022-10-23T12:09:45.304Z,98772.31
2022-10-23T12:12:12.211Z,98771.75
2022-10-23T12:14:40.643Z,98777.56
2022-10-23T12:17:32.685Z,98769.00
2022-10-23T12:20:12.498Z,98766.13
2022-10-23T12:23:01.088Z,98761.34
2022-10-23T12:25:57.180Z,98760.03
2022-10-23T12:28:48.926Z,98748.84
2022-10-23T12:31:45.566Z,98756.06
2022-10-23T12:34:55.300Z,98758.84
2022-10-23T12:37:42.923Z,98751.28
2022-10-23T12:40:10.915Z,98748.22
2022-10-23T12:42:38.472Z,98745.78
2022-10-23T12:45:25.077Z,98749.84
2022-10-23T12:47:52.922Z,98749.41
2022-10-23T12:50:25.414Z,98750.41
2022-10-23T12:52:53.176Z,98750.56
2022-10-23T12:55:20.689Z,98741.44
2022-10-23T12:57:47.934Z,98736.63
2022-10-23T13:00:18.681Z,98737.22
2022-10-23T13:02:45.993Z,98738.28
2022-10-23T13:05:19.766Z,98736.31
2022-10-23T13:07:48.457Z,98732.75
2022-10-23T13:10:21.367Z,98729.72
2022-10-23T13:13:02.746Z,98732.44
2022-10-23T13:15:44.139Z,98722.09
2022-10-23T13:18:14.557Z,98724.03
2022-10-23T13:21:03.305Z,98730.84
2022-10-23T13:23:33.377Z,98723.03
2022-10-23T13:26:18.680Z,98728.41
2022-10-23T13:28:46.446Z,98717.72
2022-10-23T13:31:13.353Z,98715.00
2022-10-23T13:33:44.179Z,98719.34
2022-10-23T13:36:13.820Z,98721.06
2022-10-23T13:38:42.040Z,98718.66
2022-10-23T13:41:16.515Z,98725.38
2022-10-23T13:43:44.670Z,98724.31
2022-10-23T13:46:21.185Z,98719.34
2022-10-23T13:48:48.615Z,98716.81
2022-10-23T13:51:22.591Z,98726.16
2022-10-23T13:53:50.138Z,98721.19
2022-10-23T13:56:19.511Z,98717.69
2022-10-23T13:58:46.593Z,98715.63
2022-10-23T14:01:24.954Z,98709.00
2022-10-23T14:03:53.371Z,98711.75
2022-10-23T14:06:20.401Z,98709.22
2022-10-23T14:08:47.410Z,98713.22
2022-10-23T14:11:16.696Z,98714.66
2022-10-23T14:13:43.759Z,98709.22
2022-10-23T14:16:13.545Z,98715.25
2022-10-23T14:18:40.893Z,98706.81
2022-10-23T14:21:09.561Z,98713.88
2022-10-23T14:23:36.588Z,98698.53
2022-10-23T14:26:12.426Z,98698.44
2022-10-23T14:28:39.562Z,98702.25
2022-10-23T14:31:08.522Z,98696.75
2022-10-23T14:33:35.655Z,98700.59
2022-10-23T14:36:02.997Z,98693.34
2022-10-23T14:38:29.932Z,98695.00
2022-10-23T14:40:56.953Z,98696.84
2022-10-23T14:43:24.618Z,98697.81
2022-10-23T14:45:52.309Z,98692.94
2022-10-23T14:48:19.326Z,98684.72
2022-10-23T14:50:48.355Z,98684.75
2022-10-23T14:53:16.216Z,98691.16
2022-10-23T14:55:43.113Z,98688.88
2022-10-23T14:58:10.103Z,98680.81
2022-10-23T15:00:37.040Z,98688.31
2022-10-23T15:03:03.987Z,98687.97
2022-10-23T15:05:30.927Z,98691.66
2022-10-23T15:07:59.152Z,98689.63
2022-10-23T15:10:26.162Z,98691.38
2022-10-23T15:12:53.080Z,98690.38
2022-10-23T15:15:20.020Z,98697.88
2022-10-23T15:17:46.896Z,98689.69
2022-10-23T15:20:13.818Z,98687.41
2022-10-23T15:22:40.868Z,98693.00
2022-10-23T15:25:08.418Z,98689.63
2022-10-23T15:27:35.398Z,98686.63
2022-10-23T15:30:02.540Z,98692.06
2022-10-23T15:32:29.547Z,98688.16
2022-10-23T15:34:58.352Z,98683.00
2022-10-23T15:37:25.328Z,98691.53
2022-10-23T15:39:52.517Z,98687.41
2022-10-23T15:42:19.571Z,98689.34
2022-10-23T15:44:47.139Z,98688.38
2022-10-23T15:47:14.189Z,98690.25
2022-10-23T15:49:41.228Z,98693.19
2022-10-23T15:54:37.785Z,98699.69
2022-10-23T15:57:05.007Z,98691.78
2022-10-23T15:59:32.445Z,98705.31
2022-10-23T16:01:59.899Z,98715.25
2022-10-23T16:04:28.707Z,98707.72
2022-10-23T16:06:55.742Z,98710.25
2022-10-23T16:09:22.699Z,98712.44
2022-10-23T16:11:49.632Z,98718.75
2022-10-23T16:14:17.623Z,98720.91
2022-10-23T16:16:44.796Z,98717.25
2022-10-23T16:19:12.561Z,98735.81
2022-10-23T16:21:39.947Z,98721.19
2022-10-23T16:24:08.332Z,98736.47
2022-10-23T16:26:36.654Z,98737.47
2022-10-23T16:29:06.297Z,98738.53
2022-10-23T16:31:33.793Z,98744.03
2022-10-23T16:34:02.111Z,98744.53
2022-10-23T16:36:29.776Z,98734.84
2022-10-23T16:39:07.532Z,98749.03
2022-10-23T16:41:53.390Z,98750.06
2022-10-23T16:44:21.055Z,98751.94
2022-10-23T16:47:00.590Z,98756.22
2022-10-23T16:49:29.915Z,98762.88
2022-10-23T16:51:56.861Z,98758.88
2022-10-23T16:54:23.850Z,98761.97
2022-10-23T16:56:50.920Z,98764.13
2022-10-23T16:59:17.875Z,98771.78
2022-10-23T17:01:45.107Z,98778.22
2022-10-23T17:04:12.061Z,98774.28
2022-10-23T17:06:39.146Z,98778.53
2022-10-23T17:09:06.205Z,98781.22
2022-10-23T17:11:36.035Z,98785.44
2022-10-23T17:14:08.800Z,98788.69
2022-10-23T17:16:40.399Z,98785.59
2022-10-23T17:19:20.547Z,98777.50
2022-10-23T17:21:55.561Z,98780.88
2022-10-23T17:24:23.257Z,98791.56
2022-10-23T17:26:50.514Z,98792.03
2022-10-23T17:29:18.502Z,98791.34
2022-10-23T17:31:47.982Z,98793.69
2022-10-23T17:34:18.270Z,98795.88
2022-10-23T17:36:48.179Z,98784.97
2022-10-23T17:39:17.580Z,98790.03
2022-10-23T17:41:45.268Z,98782.84
2022-10-23T17:44:12.602Z,98791.38
2022-10-23T17:46:39.595Z,98794.56
2022-10-23T17:49:06.885Z,98788.88
2022-10-23T17:51:35.712Z,98790.22
2022-10-23T17:54:05.743Z,98796.31
2022-10-23T17:56:34.044Z,98793.91
2022-10-23T17:59:04.568Z,98799.09
2022-10-23T18:01:32.059Z,98790.16
2022-10-23T18:04:05.614Z,98782.34
2022-10-23T18:06:36.895Z,98795.22
2022-10-23T18:09:05.493Z,98793.25
2022-10-23T18:11:35.655Z,98801.72
2022-10-23T18:14:03.731Z,98787.75
2022-10-23T18:16:30.758Z,98796.22
2022-10-23T18:19:00.550Z,98800.22
2022-10-23T18:21:28.132Z,98800.56
2022-10-23T18:23:55.290Z,98798.59
2022-10-23T18:26:26.486Z,98801.50
2022-10-23T18:28:59.382Z,98796.50
2022-10-23T18:31:30.449Z,98796.25
2022-10-23T18:33:59.174Z,98802.16
2022-10-23T18:36:28.941Z,98806.72
2022-10-23T18:41:28.190Z,98803.94
2022-10-23T18:43:55.280Z,98791.81
2022-10-23T18:46:22.472Z,98797.41
2022-10-23T18:48:52.754Z,98794.81
2022-10-23T18:51:29.872Z,98795.97
2022-10-23T18:53:57.749Z,98795.75
2022-10-23T18:56:26.796Z,98795.19
2022-10-23T18:58:58.230Z,98797.34
2022-10-23T19:01:27.348Z,98806.09
2022-10-23T19:06:23.830Z,98792.97
2022-10-23T19:08:51.217Z,98806.56
2022-10-23T19:11:21.307Z,98807.56
2022-10-23T19:13:48.427Z,98802.66
2022-10-23T19:16:18.221Z,98811.22
2022-10-23T19:18:53.606Z,98800.63
2022-10-23T19:21:24.415Z,98798.34
2022-10-23T19:23:52.543Z,98813.81
2022-10-23T19:26:19.825Z,98804.41
2022-10-23T19:28:49.109Z,98807.69
2022-10-23T19:31:16.341Z,98796.41
2022-10-23T19:33:43.497Z,98805.59
2022-10-23T19:36:14.108Z,98810.75
2022-10-23T19:38:42.311Z,98803.31
2022-10-23T19:41:09.972Z,98806.19
2022-10-23T19:43:37.992Z,98811.06
2022-10-23T19:46:09.403Z,98804.75
2022-10-23T19:48:42.577Z,98818.66
2022-10-23T19:51:09.725Z,98819.63
2022-10-23T19:53:36.832Z,98827.78
2022-10-23T19:56:06.675Z,98821.50
2022-10-23T19:58:34.118Z,98821.78
2022-10-23T20:01:08.862Z,98816.50
2022-10-23T20:03:36.023Z,98824.22
2022-10-23T20:06:03.313Z,98819.81
2022-10-23T20:08:32.753Z,98828.94
2022-10-23T20:11:02.125Z,98815.66
2022-10-23T20:13:29.075Z,98822.81
2022-10-23T20:15:56.049Z,98833.66
2022-10-23T20:18:23.030Z,98822.41
2022-10-23T20:20:49.966Z,98821.97
2022-10-23T20:23:16.968Z,98824.81
2022-10-23T20:25:44.028Z,98827.16
2022-10-23T20:28:14.262Z,98821.72
2022-10-23T20:30:44.151Z,98828.00
2022-10-23T20:33:11.100Z,98817.88
2022-10-23T20:35:42.723Z,98829.84
2022-10-23T20:38:10.261Z,98830.88
2022-10-23T20:40:37.490Z,98827.41
2022-10-23T20:43:04.492Z,98831.44
2022-10-23T20:45:31.487Z,98831.44
2022-10-23T20:47:58.402Z,98839.13
2022-10-23T20:50:25.392Z,98844.84
2022-10-23T20:52:52.455Z,98850.28
2022-10-23T20:55:20.009Z,98847.72
2022-10-23T20:57:47.362Z,98846.28
2022-10-23T21:00:15.736Z,98842.00
2022-10-23T21:02:45.766Z,98859.13
2022-10-23T21:05:14.307Z,98852.84
2022-10-23T21:07:41.177Z,98844.16
2022-10-23T21:10:08.401Z,98855.13
2022-10-23T21:12:35.371Z,98858.13
2022-10-23T21:15:02.273Z,98844.13
2022-10-23T21:17:35.886Z,98856.69
2022-10-23T21:20:03.284Z,98847.16
2022-10-23T21:22:30.283Z,98846.41
2022-10-23T21:24:58.572Z,98850.13
2022-10-23T21:27:25.870Z,98845.69
2022-10-23T21:29:52.767Z,98851.13
2022-10-23T21:32:20.962Z,98843.44
2022-10-23T21:34:47.914Z,98843.69
2022-10-23T21:37:15.216Z,98845.38
2022-10-23T21:39:43.270Z,98840.34
2022-10-23T21:42:12.184Z,98841.63
2022-10-23T21:44:39.096Z,98850.47
2022-10-23T21:47:06.064Z,98847.63
2022-10-23T21:49:33.098Z,98844.22
2022-10-23T21:52:01.615Z,98860.47
2022-10-23T21:54:29.201Z,98844.78
2022-10-23T21:56:56.766Z,98844.47
2022-10-23T21:59:29.982Z,98845.88
2022-10-23T22:01:59.935Z,98851.00
2022-10-23T22:04:27.774Z,98861.38
2022-10-23T22:06:55.453Z,98860.63
2022-10-23T22:09:23.730Z,98860.19
2022-10-23T22:11:53.445Z,98861.28
2022-10-23T22:14:21.333Z,98849.41
2022-10-23T22:16:48.753Z,98847.22
2022-10-23T22:19:17.444Z,98854.88
2022-10-23T22:21:44.714Z,98857.00
2022-10-23T22:24:12.446Z,98844.34
2022-10-23T22:26:42.918Z,98848.03
2022-10-23T22:29:14.211Z,98848.16
2022-10-23T22:31:44.232Z,98860.97
2022-10-23T22:34:26.677Z,98863.22
2022-10-23T22:37:01.051Z,98856.50
2022-10-23T22:39:27.969Z,98860.34
2022-10-23T22:41:54.914Z,98862.59
2022-10-23T22:44:21.924Z,98865.09
2022-10-23T22:46:48.932Z,98866.81
2022-10-23T22:49:16.605Z,98860.09
2022-10-23T22:51:43.586Z,98869.22
2022-10-23T22:54:10.635Z,98864.66
2022-10-23T22:56:37.602Z,98872.91
2022-10-23T22:59:05.141Z,98865.91
2022-10-23T23:01:41.512Z,98864.19
2022-10-23T23:04:26.081Z,98868.03
2022-10-23T23:06:55.497Z,98865.81
2022-10-23T23:09:22.426Z,98868.53
2022-10-23T23:11:52.807Z,98869.38
2022-10-23T23:14:23.725Z,98872.69
2022-10-23T23:16:53.285Z,98880.78
2022-10-23T23:19:23.027Z,98872.56
2022-10-23T23:21:50.593Z,98876.13
2022-10-23T23:24:17.474Z,98875.13
2022-10-23T23:26:44.403Z,98870.56
2022-10-23T23:29:11.704Z,98871.44
2022-10-23T23:31:38.715Z,98884.09
2022-10-23T23:34:05.653Z,98887.81
2022-10-23T23:36:33.984Z,98876.13
2022-10-23T23:39:01.469Z,98870.72
2022-10-23T23:41:29.177Z,98869.84
2022-10-23T23:43:57.977Z,98883.50
2022-10-23T23:46:25.766Z,98881.81
2022-10-23T23:48:52.716Z,98881.19
2022-10-23T23:51:22.328Z,98889.19
2022-10-23T23:53:50.140Z,98887.47
2022-10-23T23:56:18.108Z,98888.06
2022-10-23T23:58:45.073Z,98889.78
